Time,TemperatureF,DewpointF,PressureIn,WindDirection,WindDirectionDegrees,WindSpeedMPH,WindSpeedGustMPH,Humidity,HourlyPrecipIn,Conditions,Clouds,dailyrainin,SoftwareType,DateUTC
2013-03-07 01:34:00,24.0,18.0,-100.00,South,185,2.0,4.0,78,-99.99,,,0.00,,2013-03-07 08:34:00,
2013-03-07 01:44:00,24.0,18.0,-100.00,South,185,2.0,4.0,78,-99.99,,,0.00,,2013-03-07 08:44:00,
2013-03-07 01:52:00,24.0,18.0,-100.00,South,185,2.0,4.0,78,-99.99,,,0.00,,2013-03-07 08:52:00,
2013-03-07 02:01:00,24.0,15.0,-100.00,SW,225,9.0,11.0,69,-99.99,,,0.00,,2013-03-07 09:01:00,
2013-03-07 02:02:00,24.0,18.0,-100.00,South,185,2.0,4.0,78,-99.99,,,0.00,,2013-03-07 09:02:00,
2013-03-07 02:12:00,25.0,17.0,-100.00,SW,225,8.0,9.0,70,-99.99,,,0.00,,2013-03-07 09:12:00,
2013-03-07 02:22:00,25.0,17.0,-100.00,SW,225,8.0,9.0,70,-99.99,,,0.00,,2013-03-07 09:22:00,
2013-03-07 02:31:00,23.0,21.0,-100.00,SW,225,13.0,23.0,92,-99.99,,,0.00,,2013-03-07 09:31:00,
2013-03-07 02:32:00,24.0,15.0,-100.00,SW,225,9.0,11.0,69,-99.99,,,0.00,,2013-03-07 09:32:00,
2013-03-07 02:42:00,24.0,15.0,-100.00,SW,225,9.0,11.0,69,-99.99,,,0.00,,2013-03-07 09:42:00,
2013-03-07 02:52:00,24.0,15.0,-100.00,SW,225,9.0,11.0,69,-99.99,,,0.00,,2013-03-07 09:52:00,
2013-03-07 03:12:00,23.0,21.0,-100.00,SW,225,13.0,23.0,92,-99.99,,,0.00,,2013-03-07 10:12:00,
2013-03-07 03:22:00,23.0,21.0,-100.00,SW,225,13.0,23.0,92,-99.99,,,0.00,,2013-03-07 10:22:00,
2013-03-07 04:11:00,23.0,17.0,-100.00,SW,215,5.0,8.0,76,-99.99,,,0.00,,2013-03-07 11:11:00,
2013-03-07 04:22:00,23.0,17.0,-100.00,SW,215,5.0,8.0,76,-99.99,,,0.00,,2013-03-07 11:22:00,
2013-03-07 04:32:00,20.0,14.0,-100.00,NE,40,1.0,2.0,80,-99.99,,,0.00,,2013-03-07 11:32:00,
2013-03-07 04:43:00,20.0,14.0,-100.00,NE,40,1.0,2.0,80,-99.99,,,0.00,,2013-03-07 11:43:00,
2013-03-07 04:52:00,20.0,14.0,-100.00,NE,40,1.0,2.0,80,-99.99,,,0.00,,2013-03-07 11:52:00,
2013-03-07 05:00:00,23.0,18.0,-100.00,West,270,6.0,9.0,78,-99.99,,,0.00,,2013-03-07 12:00:00,
2013-03-07 05:02:00,20.0,14.0,-100.00,NE,40,1.0,2.0,80,-99.99,,,0.00,,2013-03-07 12:02:00,
2013-03-07 05:12:00,21.0,15.0,-100.00,WSW,245,6.0,9.0,78,-99.99,,,0.00,,2013-03-07 12:12:00,
2013-03-07 05:22:00,21.0,15.0,-100.00,WSW,245,6.0,9.0,78,-99.99,,,0.00,,2013-03-07 12:22:00,
2013-03-07 05:31:00,22.0,19.0,-100.00,SW,235,15.0,20.0,88,-99.99,,,0.00,,2013-03-07 12:31:00,
2013-03-07 05:32:00,23.0,18.0,-100.00,West,270,6.0,9.0,78,-99.99,,,0.00,,2013-03-07 12:32:00,
2013-03-07 05:42:00,23.0,18.0,-100.00,West,270,6.0,9.0,78,-99.99,,,0.00,,2013-03-07 12:42:00,
2013-03-07 05:52:00,23.0,18.0,-100.00,West,270,6.0,9.0,78,-99.99,,,0.00,,2013-03-07 12:52:00,
2013-03-07 06:12:00,22.0,19.0,-100.00,SW,235,15.0,20.0,88,-99.99,,,0.00,,2013-03-07 13:12:00,
2013-03-07 06:22:00,22.0,19.0,-100.00,SW,235,15.0,20.0,88,-99.99,,,0.00,,2013-03-07 13:22:00,
2013-03-07 07:01:00,20.0,16.0,-100.00,East,90,1.0,2.0,84,-99.99,,,0.00,,2013-03-07 14:01:00,
2013-03-07 07:12:00,22.0,17.0,-100.00,SSW,200,3.0,7.0,81,-99.99,,,0.00,,2013-03-07 14:12:00,
2013-03-07 07:22:00,22.0,17.0,-100.00,SSW,200,3.0,7.0,81,-99.99,,,0.00,,2013-03-07 14:22:00,
2013-03-07 07:32:00,20.0,16.0,-100.00,East,90,1.0,2.0,84,-99.99,,,0.00,,2013-03-07 14:32:00,
2013-03-07 07:42:00,20.0,16.0,-100.00,East,90,1.0,2.0,84,-99.99,,,0.00,,2013-03-07 14:42:00,
2013-03-07 07:52:00,20.0,16.0,-100.00,East,90,1.0,2.0,84,-99.99,,,0.00,,2013-03-07 14:52:00,
2013-03-07 08:01:00,20.0,16.0,-100.00,ENE,65,1.0,1.0,84,-99.99,,,0.00,,2013-03-07 15:01:00,
2013-03-07 08:12:00,21.0,18.0,-100.00,SSW,205,0.0,1.0,85,-99.99,,,0.00,,2013-03-07 15:12:00,
2013-03-07 08:22:00,21.0,18.0,-100.00,SSW,205,0.0,1.0,85,-99.99,,,0.00,,2013-03-07 15:22:00,
2013-03-07 08:31:00,24.0,17.0,-100.00,SSW,200,1.0,2.0,76,-99.99,,,0.00,,2013-03-07 15:31:00,
2013-03-07 08:32:00,20.0,16.0,-100.00,ENE,65,1.0,1.0,84,-99.99,,,0.00,,2013-03-07 15:32:00,
2013-03-07 08:42:00,20.0,16.0,-100.00,ENE,65,1.0,1.0,84,-99.99,,,0.00,,2013-03-07 15:42:00,
2013-03-07 08:52:00,20.0,16.0,-100.00,ENE,65,1.0,1.0,84,-99.99,,,0.00,,2013-03-07 15:52:00,
2013-03-07 09:12:00,24.0,17.0,-100.00,SSW,200,1.0,2.0,76,-99.99,,,0.00,,2013-03-07 16:12:00,
2013-03-07 09:22:00,24.0,17.0,-100.00,SSW,200,1.0,2.0,76,-99.99,,,0.00,,2013-03-07 16:22:00,
2013-03-07 10:01:00,23.0,13.0,-100.00,SW,215,8.0,14.0,65,-99.99,,,0.00,,2013-03-07 17:01:00,
2013-03-07 10:12:00,23.0,14.0,-100.00,SSW,200,6.0,8.0,66,-99.99,,,0.00,,2013-03-07 17:12:00,
2013-03-07 10:22:00,23.0,14.0,-100.00,SSW,200,6.0,8.0,66,-99.99,,,0.00,,2013-03-07 17:22:00,
2013-03-07 10:32:00,23.0,13.0,-100.00,SW,215,8.0,14.0,65,-99.99,,,0.00,,2013-03-07 17:32:00,
2013-03-07 10:42:00,23.0,13.0,-100.00,SW,215,8.0,14.0,65,-99.99,,,0.00,,2013-03-07 17:42:00,
2013-03-07 10:52:00,23.0,13.0,-100.00,SW,215,8.0,14.0,65,-99.99,,,0.00,,2013-03-07 17:52:00,
2013-03-07 11:12:00,26.0,14.0,-100.00,WSW,250,8.0,10.0,61,-99.99,,,0.00,,2013-03-07 18:12:00,
2013-03-07 11:21:00,26.0,14.0,-100.00,WSW,250,8.0,10.0,61,-99.99,,,0.00,,2013-03-07 18:21:00,
2013-03-07 11:32:00,26.0,14.0,-100.00,SW,220,10.0,12.0,60,-99.99,,,0.00,,2013-03-07 18:32:00,
2013-03-07 11:42:00,26.0,14.0,-100.00,SW,220,10.0,12.0,60,-99.99,,,0.00,,2013-03-07 18:42:00,
2013-03-07 11:52:00,26.0,14.0,-100.00,SW,220,10.0,12.0,60,-99.99,,,0.00,,2013-03-07 18:52:00,
2013-03-07 12:12:00,29.0,15.0,-100.00,SW,235,3.0,6.0,55,-99.99,,,0.00,,2013-03-07 19:12:00,
2013-03-07 12:22:00,29.0,15.0,-100.00,SW,235,3.0,6.0,55,-99.99,,,0.00,,2013-03-07 19:22:00,
2013-03-07 12:44:00,31.0,16.0,-100.00,West,280,4.0,9.0,52,-99.99,,,0.00,,2013-03-07 19:44:00,
2013-03-07 12:52:00,31.0,16.0,-100.00,West,280,4.0,9.0,52,-99.99,,,0.00,,2013-03-07 19:52:00,
2013-03-07 13:01:00,31.0,16.0,-100.00,West,280,4.0,9.0,52,-99.99,,,0.00,,2013-03-07 20:01:00,
2013-03-07 13:13:00,31.0,16.0,-100.00,West,270,7.0,11.0,53,-99.99,,,0.00,,2013-03-07 20:13:00,
2013-03-07 13:22:00,31.0,16.0,-100.00,West,270,7.0,11.0,53,-99.99,,,0.00,,2013-03-07 20:22:00,
2013-03-07 13:32:00,32.0,15.0,-100.00,West,280,6.0,9.0,49,-99.99,,,0.00,,2013-03-07 20:32:00,
2013-03-07 13:43:00,32.0,15.0,-100.00,West,280,6.0,9.0,49,-99.99,,,0.00,,2013-03-07 20:43:00,
2013-03-07 13:53:00,32.0,15.0,-100.00,West,280,6.0,9.0,49,-99.99,,,0.00,,2013-03-07 20:53:00,
2013-03-07 14:02:00,32.0,15.0,-100.00,West,280,6.0,9.0,49,-99.99,,,0.00,,2013-03-07 21:02:00,
2013-03-07 14:12:00,30.0,15.0,-100.00,WSW,255,8.0,12.0,53,-99.99,,,0.00,,2013-03-07 21:12:00,
2013-03-07 14:22:00,30.0,15.0,-100.00,WSW,255,8.0,12.0,53,-99.99,,,0.00,,2013-03-07 21:22:00,
2013-03-07 14:32:00,32.0,13.0,-100.00,WSW,250,6.0,8.0,44,-99.99,,,0.00,,2013-03-07 21:32:00,
2013-03-07 14:52:00,32.0,13.0,-100.00,WSW,250,6.0,8.0,44,-99.99,,,0.00,,2013-03-07 21:52:00,
2013-03-07 15:01:00,32.0,13.0,-100.00,WSW,250,6.0,8.0,44,-99.99,,,0.00,,2013-03-07 22:01:00,
2013-03-07 15:02:00,34.0,11.0,-100.00,West,275,4.0,12.0,38,-99.99,,,0.00,,2013-03-07 22:02:00,
2013-03-07 15:11:00,34.0,11.0,-100.00,West,280,6.0,12.0,39,-99.99,,,0.00,,2013-03-07 22:11:00,
2013-03-07 15:22:00,34.0,11.0,-100.00,West,280,6.0,12.0,39,-99.99,,,0.00,,2013-03-07 22:22:00,
2013-03-07 15:32:00,34.0,11.0,-100.00,West,275,4.0,12.0,38,-99.99,,,0.00,,2013-03-07 22:32:00,
2013-03-07 15:52:00,34.0,11.0,-100.00,West,275,4.0,12.0,38,-99.99,,,0.00,,2013-03-07 22:52:00,
2013-03-07 16:02:00,33.0,11.0,-100.00,NW,320,6.0,9.0,39,-99.99,,,0.00,,2013-03-07 23:02:00,
2013-03-07 16:12:00,34.0,11.0,-100.00,NW,320,6.0,9.0,38,-99.99,,,0.00,,2013-03-07 23:12:00,
2013-03-07 16:22:00,34.0,11.0,-100.00,NW,320,6.0,9.0,38,-99.99,,,0.00,,2013-03-07 23:22:00,
2013-03-07 16:32:00,33.0,11.0,-100.00,NW,320,6.0,9.0,39,-99.99,,,0.00,,2013-03-07 23:32:00,
2013-03-07 16:44:00,33.0,11.0,-100.00,NW,320,6.0,9.0,39,-99.99,,,0.00,,2013-03-07 23:44:00,
2013-03-07 16:52:00,33.0,11.0,-100.00,NW,320,6.0,9.0,39,-99.99,,,0.00,,2013-03-07 23:52:00,
2013-03-07 17:01:00,32.0,9.0,-100.00,WNW,300,4.0,6.0,38,-99.99,,,0.00,,2013-03-08 00:01:00,
2013-03-07 17:22:00,34.0,11.0,-100.00,WNW,300,3.0,6.0,37,-99.99,,,0.00,,2013-03-08 00:22:00,
2013-03-07 17:33:00,32.0,9.0,-100.00,WNW,300,4.0,6.0,38,-99.99,,,0.00,,2013-03-08 00:33:00,
2013-03-07 17:43:00,32.0,9.0,-100.00,WNW,300,4.0,6.0,38,-99.99,,,0.00,,2013-03-08 00:43:00,
2013-03-07 17:52:00,32.0,9.0,-100.00,WNW,300,4.0,6.0,38,-99.99,,,0.00,,2013-03-08 00:52:00,
2013-03-07 18:11:00,34.0,9.0,-100.00,NW,320,0.0,3.0,34,-99.99,,,0.00,,2013-03-08 01:11:00,
2013-03-07 18:21:00,34.0,9.0,-100.00,NW,320,0.0,3.0,34,-99.99,,,0.00,,2013-03-08 01:21:00,
2013-03-07 18:32:00,32.0,8.0,-100.00,SW,215,0.0,1.0,36,-99.99,,,0.00,,2013-03-08 01:32:00,
2013-03-07 18:42:00,32.0,8.0,-100.00,SW,215,0.0,1.0,36,-99.99,,,0.00,,2013-03-08 01:42:00,
2013-03-07 18:51:00,32.0,8.0,-100.00,SW,215,0.0,1.0,36,-99.99,,,0.00,,2013-03-08 01:51:00,
2013-03-07 19:01:00,32.0,8.0,-100.00,SW,215,0.0,1.0,36,-99.99,,,0.00,,2013-03-08 02:01:00,
2013-03-07 19:11:00,26.0,9.0,-100.00,ESE,120,1.0,2.0,48,-99.99,,,0.00,,2013-03-08 02:11:00,
2013-03-07 19:21:00,26.0,9.0,-100.00,ESE,120,1.0,2.0,48,-99.99,,,0.00,,2013-03-08 02:21:00,
2013-03-07 19:31:00,26.0,9.0,-100.00,ESE,120,1.0,2.0,48,-99.99,,,0.00,,2013-03-08 02:31:00,
2013-03-07 20:01:00,20.0,10.0,-100.00,East,95,2.0,3.0,62,-99.99,,,0.00,,2013-03-08 03:01:00,
2013-03-07 20:32:00,20.0,10.0,-100.00,East,95,2.0,3.0,62,-99.99,,,0.00,,2013-03-08 03:32:00,
2013-03-07 20:42:00,20.0,10.0,-100.00,East,95,2.0,3.0,62,-99.99,,,0.00,,2013-03-08 03:42:00,
2013-03-07 20:52:00,20.0,10.0,-100.00,East,95,2.0,3.0,62,-99.99,,,0.00,,2013-03-08 03:52:00,
2013-03-07 21:11:00,16.0,7.0,-100.00,SSW,205,0.0,4.0,67,-99.99,,,0.00,,2013-03-08 04:11:00,
2013-03-07 21:21:00,16.0,7.0,-100.00,SSW,205,0.0,4.0,67,-99.99,,,0.00,,2013-03-08 04:21:00,
2013-03-07 21:31:00,16.0,7.0,-100.00,SSW,205,0.0,4.0,67,-99.99,,,0.00,,2013-03-08 04:31:00,
2013-03-07 22:12:00,14.0,7.0,-100.00,North,-999,0.0,0.0,71,-99.99,,,0.00,,2013-03-08 05:12:00,
2013-03-07 22:22:00,14.0,7.0,-100.00,North,-999,0.0,0.0,71,-99.99,,,0.00,,2013-03-08 05:22:00,
2013-03-07 22:31:00,15.0,8.0,-100.00,NE,45,1.0,2.0,72,-99.99,,,0.00,,2013-03-08 05:31:00,
2013-03-07 22:32:00,15.0,8.0,-100.00,SW,215,0.0,1.0,71,-99.99,,,0.00,,2013-03-08 05:32:00,
2013-03-07 22:52:00,15.0,8.0,-100.00,SW,215,0.0,1.0,71,-99.99,,,0.00,,2013-03-08 05:52:00,
2013-03-07 23:11:00,15.0,8.0,-100.00,NE,45,1.0,2.0,72,-99.99,,,0.00,,2013-03-08 06:11:00,
2013-03-07 23:21:00,15.0,8.0,-100.00,NE,45,1.0,2.0,72,-99.99,,,0.00,,2013-03-08 06:21:00,